sensor_id;sensor_type;location;lat;lon;timestamp;P1;durP1;ratioP1;P2;durP2;ratioP2
69463;SDS011;56665;41.106;16.688;2022-08-19T00:02:54;9.02;;;4.40;;
69463;SDS011;56665;41.106;16.688;2022-08-19T00:05:58;13.70;;;4.20;;
69463;SDS011;56665;41.106;16.688;2022-08-19T00:09:03;12.17;;;4.10;;
69463;SDS011;56665;41.106;16.688;2022-08-19T00:12:10;17.30;;;4.22;;
69463;SDS011;56665;41.106;16.688;2022-08-19T00:15:16;14.20;;;5.18;;
69463;SDS011;56665;41.106;16.688;2022-08-19T00:18:21;10.50;;;4.00;;
69463;SDS011;56665;41.106;16.688;2022-08-19T00:21:25;11.25;;;4.30;;
69463;SDS011;56665;41.106;16.688;2022-08-19T00:24:30;13.77;;;4.57;;
69463;SDS011;56665;41.106;16.688;2022-08-19T00:27:34;12.13;;;4.40;;
69463;SDS011;56665;41.106;16.688;2022-08-19T00:30:38;15.27;;;4.22;;
69463;SDS011;56665;41.106;16.688;2022-08-19T00:33:42;11.77;;;4.25;;
69463;SDS011;56665;41.106;16.688;2022-08-19T00:36:46;11.50;;;3.90;;
69463;SDS011;56665;41.106;16.688;2022-08-19T00:39:50;13.03;;;3.70;;
69463;SDS011;56665;41.106;16.688;2022-08-19T00:42:56;14.25;;;4.38;;
69463;SDS011;56665;41.106;16.688;2022-08-19T00:46:00;13.95;;;4.00;;
69463;SDS011;56665;41.106;16.688;2022-08-19T00:52:38;9.50;;;4.00;;
69463;SDS011;56665;41.106;16.688;2022-08-19T00:55:49;15.33;;;3.80;;
69463;SDS011;56665;41.106;16.688;2022-08-19T00:58:56;11.70;;;3.70;;
69463;SDS011;56665;41.106;16.688;2022-08-19T01:02:01;12.55;;;3.85;;
69463;SDS011;56665;41.106;16.688;2022-08-19T01:05:07;15.55;;;3.58;;
69463;SDS011;56665;41.106;16.688;2022-08-19T01:08:15;15.82;;;3.42;;
69463;SDS011;56665;41.106;16.688;2022-08-19T01:11:20;15.87;;;3.50;;
69463;SDS011;56665;41.106;16.688;2022-08-19T01:14:24;16.58;;;3.70;;
69463;SDS011;56665;41.106;16.688;2022-08-19T01:17:28;19.30;;;4.25;;
69463;SDS011;56665;41.106;16.688;2022-08-19T01:20:32;15.80;;;4.53;;
69463;SDS011;56665;41.106;16.688;2022-08-19T01:23:37;17.77;;;3.83;;
69463;SDS011;56665;41.106;16.688;2022-08-19T01:26:46;17.00;;;3.90;;
69463;SDS011;56665;41.106;16.688;2022-08-19T01:29:51;15.60;;;4.10;;
69463;SDS011;56665;41.106;16.688;2022-08-19T01:32:55;18.33;;;4.10;;
69463;SDS011;56665;41.106;16.688;2022-08-19T01:36:06;17.63;;;5.00;;
69463;SDS011;56665;41.106;16.688;2022-08-19T01:39:13;17.92;;;5.32;;
69463;SDS011;56665;41.106;16.688;2022-08-19T01:42:20;18.53;;;4.17;;
69463;SDS011;56665;41.106;16.688;2022-08-19T01:45:26;14.40;;;3.90;;
69463;SDS011;56665;41.106;16.688;2022-08-19T01:48:38;11.18;;;4.10;;
69463;SDS011;56665;41.106;16.688;2022-08-19T01:51:44;21.42;;;4.03;;
69463;SDS011;56665;41.106;16.688;2022-08-19T01:54:49;17.33;;;4.20;;
69463;SDS011;56665;41.106;16.688;2022-08-19T01:57:54;13.87;;;3.93;;
69463;SDS011;56665;41.106;16.688;2022-08-19T02:01:01;20.90;;;4.10;;
69463;SDS011;56665;41.106;16.688;2022-08-19T02:04:05;18.33;;;3.28;;
69463;SDS011;56665;41.106;16.688;2022-08-19T02:07:09;20.38;;;3.95;;
69463;SDS011;56665;41.106;16.688;2022-08-19T02:10:14;18.52;;;5.13;;
69463;SDS011;56665;41.106;16.688;2022-08-19T02:13:20;16.10;;;6.43;;
69463;SDS011;56665;41.106;16.688;2022-08-19T02:16:25;20.10;;;6.75;;
69463;SDS011;56665;41.106;16.688;2022-08-19T02:19:28;18.08;;;6.05;;
69463;SDS011;56665;41.106;16.688;2022-08-19T02:22:35;23.33;;;5.95;;
69463;SDS011;56665;41.106;16.688;2022-08-19T02:25:38;13.88;;;5.13;;
69463;SDS011;56665;41.106;16.688;2022-08-19T02:28:42;18.10;;;5.03;;
69463;SDS011;56665;41.106;16.688;2022-08-19T02:31:46;18.88;;;4.65;;
69463;SDS011;56665;41.106;16.688;2022-08-19T02:34:50;20.40;;;4.72;;
69463;SDS011;56665;41.106;16.688;2022-08-19T02:37:53;17.92;;;4.30;;
69463;SDS011;56665;41.106;16.688;2022-08-19T02:41:20;15.18;;;3.80;;
69463;SDS011;56665;41.106;16.688;2022-08-19T02:44:28;19.50;;;3.93;;
69463;SDS011;56665;41.106;16.688;2022-08-19T02:47:32;13.88;;;4.03;;
69463;SDS011;56665;41.106;16.688;2022-08-19T02:50:37;16.85;;;3.97;;
69463;SDS011;56665;41.106;16.688;2022-08-19T02:53:41;16.02;;;3.80;;
69463;SDS011;56665;41.106;16.688;2022-08-19T02:56:45;12.93;;;4.40;;
69463;SDS011;56665;41.106;16.688;2022-08-19T02:59:50;17.43;;;4.50;;
69463;SDS011;56665;41.106;16.688;2022-08-19T03:02:53;20.95;;;4.70;;
69463;SDS011;56665;41.106;16.688;2022-08-19T03:06:04;16.23;;;3.88;;
69463;SDS011;56665;41.106;16.688;2022-08-19T03:09:14;19.77;;;3.80;;
69463;SDS011;56665;41.106;16.688;2022-08-19T03:12:19;16.58;;;4.45;;
69463;SDS011;56665;41.106;16.688;2022-08-19T03:15:23;12.50;;;3.80;;
69463;SDS011;56665;41.106;16.688;2022-08-19T03:18:27;15.48;;;3.88;;
69463;SDS011;56665;41.106;16.688;2022-08-19T03:21:31;21.00;;;4.65;;
69463;SDS011;56665;41.106;16.688;2022-08-19T03:24:36;15.35;;;5.07;;
69463;SDS011;56665;41.106;16.688;2022-08-19T03:27:41;20.48;;;4.95;;
69463;SDS011;56665;41.106;16.688;2022-08-19T03:30:54;13.97;;;5.10;;
69463;SDS011;56665;41.106;16.688;2022-08-19T03:34:00;17.20;;;4.35;;
69463;SDS011;56665;41.106;16.688;2022-08-19T03:37:05;15.00;;;4.20;;
69463;SDS011;56665;41.106;16.688;2022-08-19T03:40:12;13.45;;;3.65;;
69463;SDS011;56665;41.106;16.688;2022-08-19T03:43:15;12.60;;;3.80;;
69463;SDS011;56665;41.106;16.688;2022-08-19T03:46:22;15.77;;;4.27;;
69463;SDS011;56665;41.106;16.688;2022-08-19T03:49:28;13.80;;;3.78;;
69463;SDS011;56665;41.106;16.688;2022-08-19T03:52:33;17.67;;;4.53;;
69463;SDS011;56665;41.106;16.688;2022-08-19T03:55:40;14.73;;;4.88;;
69463;SDS011;56665;41.106;16.688;2022-08-19T03:58:45;17.13;;;4.82;;
69463;SDS011;56665;41.106;16.688;2022-08-19T04:01:49;22.60;;;4.63;;
69463;SDS011;56665;41.106;16.688;2022-08-19T04:04:53;16.20;;;4.68;;
69463;SDS011;56665;41.106;16.688;2022-08-19T04:08:00;16.20;;;4.57;;
69463;SDS011;56665;41.106;16.688;2022-08-19T04:11:08;19.08;;;4.70;;
69463;SDS011;56665;41.106;16.688;2022-08-19T04:14:17;16.20;;;4.75;;
69463;SDS011;56665;41.106;16.688;2022-08-19T04:17:22;19.70;;;5.47;;
69463;SDS011;56665;41.106;16.688;2022-08-19T04:20:26;16.63;;;4.80;;
69463;SDS011;56665;41.106;16.688;2022-08-19T04:23:30;15.23;;;4.78;;
69463;SDS011;56665;41.106;16.688;2022-08-19T04:26:35;16.30;;;5.07;;
69463;SDS011;56665;41.106;16.688;2022-08-19T04:29:40;14.77;;;5.03;;
69463;SDS011;56665;41.106;16.688;2022-08-19T04:32:44;24.07;;;4.23;;
69463;SDS011;56665;41.106;16.688;2022-08-19T04:35:48;13.77;;;4.40;;
69463;SDS011;56665;41.106;16.688;2022-08-19T04:38:55;13.57;;;4.15;;
69463;SDS011;56665;41.106;16.688;2022-08-19T04:42:00;18.70;;;6.50;;
69463;SDS011;56665;41.106;16.688;2022-08-19T04:45:22;24.75;;;6.63;;
69463;SDS011;56665;41.106;16.688;2022-08-19T04:48:25;16.93;;;6.33;;
69463;SDS011;56665;41.106;16.688;2022-08-19T04:51:29;18.30;;;6.20;;
69463;SDS011;56665;41.106;16.688;2022-08-19T04:54:34;17.30;;;6.32;;
69463;SDS011;56665;41.106;16.688;2022-08-19T04:57:37;21.05;;;6.60;;
69463;SDS011;56665;41.106;16.688;2022-08-19T05:00:43;16.20;;;5.60;;
69463;SDS011;56665;41.106;16.688;2022-08-19T05:03:47;17.73;;;6.30;;
69463;SDS011;56665;41.106;16.688;2022-08-19T05:06:51;15.40;;;7.07;;
69463;SDS011;56665;41.106;16.688;2022-08-19T05:09:56;22.10;;;7.85;;
69463;SDS011;56665;41.106;16.688;2022-08-19T05:13:00;18.42;;;7.20;;
69463;SDS011;56665;41.106;16.688;2022-08-19T05:16:04;22.77;;;6.63;;
69463;SDS011;56665;41.106;16.688;2022-08-19T05:19:08;19.13;;;5.23;;
69463;SDS011;56665;41.106;16.688;2022-08-19T05:22:30;17.55;;;5.40;;
69463;SDS011;56665;41.106;16.688;2022-08-19T05:25:40;15.27;;;5.43;;
69463;SDS011;56665;41.106;16.688;2022-08-19T05:28:44;17.40;;;6.40;;
69463;SDS011;56665;41.106;16.688;2022-08-19T05:31:48;17.80;;;5.55;;
69463;SDS011;56665;41.106;16.688;2022-08-19T05:34:53;17.20;;;6.03;;
69463;SDS011;56665;41.106;16.688;2022-08-19T05:37:57;22.38;;;6.22;;
69463;SDS011;56665;41.106;16.688;2022-08-19T05:41:06;13.25;;;5.90;;
69463;SDS011;56665;41.106;16.688;2022-08-19T05:44:11;15.32;;;5.75;;
69463;SDS011;56665;41.106;16.688;2022-08-19T05:47:16;14.57;;;6.22;;
69463;SDS011;56665;41.106;16.688;2022-08-19T05:50:22;16.63;;;5.83;;
69463;SDS011;56665;41.106;16.688;2022-08-19T05:53:25;14.10;;;5.88;;
69463;SDS011;56665;41.106;16.688;2022-08-19T05:56:29;16.13;;;6.22;;
69463;SDS011;56665;41.106;16.688;2022-08-19T05:59:33;15.27;;;6.10;;
69463;SDS011;56665;41.106;16.688;2022-08-19T06:02:40;16.70;;;6.20;;
69463;SDS011;56665;41.106;16.688;2022-08-19T06:05:44;16.70;;;6.17;;
69463;SDS011;56665;41.106;16.688;2022-08-19T06:08:49;15.93;;;6.40;;
69463;SDS011;56665;41.106;16.688;2022-08-19T06:11:54;17.10;;;6.22;;
69463;SDS011;56665;41.106;16.688;2022-08-19T06:15:10;16.65;;;7.18;;
69463;SDS011;56665;41.106;16.688;2022-08-19T06:18:15;18.27;;;6.68;;
69463;SDS011;56665;41.106;16.688;2022-08-19T06:21:23;17.67;;;6.40;;
69463;SDS011;56665;41.106;16.688;2022-08-19T06:24:29;14.55;;;5.93;;
69463;SDS011;56665;41.106;16.688;2022-08-19T06:27:33;14.55;;;5.60;;
69463;SDS011;56665;41.106;16.688;2022-08-19T06:30:37;16.25;;;6.25;;
69463;SDS011;56665;41.106;16.688;2022-08-19T06:33:41;19.73;;;6.65;;
69463;SDS011;56665;41.106;16.688;2022-08-19T06:36:49;17.10;;;6.10;;
69463;SDS011;56665;41.106;16.688;2022-08-19T06:39:54;13.32;;;5.28;;
69463;SDS011;56665;41.106;16.688;2022-08-19T06:42:58;16.52;;;5.53;;
69463;SDS011;56665;41.106;16.688;2022-08-19T06:46:03;10.48;;;4.68;;
69463;SDS011;56665;41.106;16.688;2022-08-19T06:49:15;17.42;;;5.65;;
69463;SDS011;56665;41.106;16.688;2022-08-19T06:52:20;15.53;;;6.30;;
69463;SDS011;56665;41.106;16.688;2022-08-19T06:55:24;25.73;;;6.55;;
69463;SDS011;56665;41.106;16.688;2022-08-19T06:58:31;17.45;;;6.18;;
69463;SDS011;56665;41.106;16.688;2022-08-19T07:01:39;18.02;;;6.20;;
69463;SDS011;56665;41.106;16.688;2022-08-19T07:04:45;21.40;;;7.03;;
69463;SDS011;56665;41.106;16.688;2022-08-19T07:07:49;17.87;;;6.67;;
69463;SDS011;56665;41.106;16.688;2022-08-19T07:10:53;19.15;;;5.90;;
69463;SDS011;56665;41.106;16.688;2022-08-19T07:13:58;21.77;;;6.07;;
69463;SDS011;56665;41.106;16.688;2022-08-19T07:17:04;19.02;;;6.10;;
69463;SDS011;56665;41.106;16.688;2022-08-19T07:20:14;23.55;;;5.82;;
69463;SDS011;56665;41.106;16.688;2022-08-19T07:23:18;21.60;;;6.47;;
69463;SDS011;56665;41.106;16.688;2022-08-19T07:26:30;18.70;;;6.05;;
69463;SDS011;56665;41.106;16.688;2022-08-19T07:29:41;23.35;;;5.50;;
69463;SDS011;56665;41.106;16.688;2022-08-19T07:32:45;17.17;;;5.82;;
69463;SDS011;56665;41.106;16.688;2022-08-19T07:35:49;22.25;;;6.05;;
69463;SDS011;56665;41.106;16.688;2022-08-19T07:38:52;21.03;;;5.90;;
69463;SDS011;56665;41.106;16.688;2022-08-19T07:41:58;18.20;;;5.88;;
69463;SDS011;56665;41.106;16.688;2022-08-19T07:45:04;20.83;;;6.20;;
69463;SDS011;56665;41.106;16.688;2022-08-19T07:48:09;23.02;;;5.45;;
69463;SDS011;56665;41.106;16.688;2022-08-19T07:51:15;20.33;;;5.75;;
69463;SDS011;56665;41.106;16.688;2022-08-19T07:54:21;16.97;;;5.87;;
69463;SDS011;56665;41.106;16.688;2022-08-19T07:57:26;20.00;;;5.95;;
69463;SDS011;56665;41.106;16.688;2022-08-19T08:00:29;23.98;;;6.25;;
69463;SDS011;56665;41.106;16.688;2022-08-19T08:03:36;21.02;;;5.50;;
69463;SDS011;56665;41.106;16.688;2022-08-19T08:06:58;22.50;;;6.65;;
69463;SDS011;56665;41.106;16.688;2022-08-19T08:10:20;18.03;;;6.03;;
69463;SDS011;56665;41.106;16.688;2022-08-19T08:13:24;20.65;;;5.95;;
69463;SDS011;56665;41.106;16.688;2022-08-19T08:16:28;21.17;;;6.13;;
69463;SDS011;56665;41.106;16.688;2022-08-19T08:19:34;22.83;;;6.00;;
69463;SDS011;56665;41.106;16.688;2022-08-19T08:22:42;21.33;;;7.03;;
69463;SDS011;56665;41.106;16.688;2022-08-19T08:26:05;20.87;;;6.43;;
69463;SDS011;56665;41.106;16.688;2022-08-19T08:29:09;19.92;;;6.43;;
69463;SDS011;56665;41.106;16.688;2022-08-19T08:32:15;22.25;;;6.20;;
69463;SDS011;56665;41.106;16.688;2022-08-19T08:35:20;25.65;;;6.63;;
69463;SDS011;56665;41.106;16.688;2022-08-19T08:38:25;21.15;;;6.50;;
69463;SDS011;56665;41.106;16.688;2022-08-19T08:48:09;25.40;;;6.68;;
69463;SDS011;56665;41.106;16.688;2022-08-19T08:51:42;25.70;;;6.53;;
69463;SDS011;56665;41.106;16.688;2022-08-19T08:54:52;22.27;;;6.32;;
69463;SDS011;56665;41.106;16.688;2022-08-19T09:01:19;25.08;;;6.47;;
69463;SDS011;56665;41.106;16.688;2022-08-19T09:04:23;20.90;;;5.78;;
69463;SDS011;56665;41.106;16.688;2022-08-19T09:11:09;23.00;;;5.63;;
69463;SDS011;56665;41.106;16.688;2022-08-19T09:18:05;24.75;;;5.80;;
69463;SDS011;56665;41.106;16.688;2022-08-19T09:21:11;21.83;;;7.13;;
69463;SDS011;56665;41.106;16.688;2022-08-19T09:24:16;23.67;;;7.15;;
69463;SDS011;56665;41.106;16.688;2022-08-19T09:27:20;31.33;;;8.68;;
69463;SDS011;56665;41.106;16.688;2022-08-19T09:30:27;25.50;;;7.50;;
69463;SDS011;56665;41.106;16.688;2022-08-19T09:33:33;27.95;;;7.20;;
69463;SDS011;56665;41.106;16.688;2022-08-19T09:36:37;30.48;;;9.00;;
69463;SDS011;56665;41.106;16.688;2022-08-19T09:39:41;27.08;;;6.57;;
69463;SDS011;56665;41.106;16.688;2022-08-19T09:42:46;22.13;;;6.75;;
69463;SDS011;56665;41.106;16.688;2022-08-19T09:45:50;21.77;;;6.07;;
69463;SDS011;56665;41.106;16.688;2022-08-19T09:48:57;30.17;;;7.78;;
69463;SDS011;56665;41.106;16.688;2022-08-19T09:52:02;22.10;;;7.60;;
69463;SDS011;56665;41.106;16.688;2022-08-19T09:55:07;26.58;;;6.95;;
69463;SDS011;56665;41.106;16.688;2022-08-19T09:58:12;24.35;;;6.97;;
69463;SDS011;56665;41.106;16.688;2022-08-19T10:01:17;17.77;;;6.27;;
69463;SDS011;56665;41.106;16.688;2022-08-19T10:04:23;17.15;;;5.68;;
69463;SDS011;56665;41.106;16.688;2022-08-19T10:07:47;25.52;;;5.82;;
69463;SDS011;56665;41.106;16.688;2022-08-19T10:10:51;19.00;;;5.97;;
69463;SDS011;56665;41.106;16.688;2022-08-19T10:13:55;16.05;;;5.32;;
69463;SDS011;56665;41.106;16.688;2022-08-19T10:16:59;16.97;;;5.97;;
69463;SDS011;56665;41.106;16.688;2022-08-19T10:20:05;16.10;;;5.68;;
69463;SDS011;56665;41.106;16.688;2022-08-19T10:23:09;18.95;;;5.68;;
69463;SDS011;56665;41.106;16.688;2022-08-19T10:26:14;20.45;;;5.50;;
69463;SDS011;56665;41.106;16.688;2022-08-19T10:29:21;20.23;;;5.40;;
69463;SDS011;56665;41.106;16.688;2022-08-19T10:32:25;20.17;;;5.77;;
69463;SDS011;56665;41.106;16.688;2022-08-19T10:35:29;22.05;;;7.40;;
69463;SDS011;56665;41.106;16.688;2022-08-19T10:38:32;20.48;;;6.32;;
69463;SDS011;56665;41.106;16.688;2022-08-19T10:41:37;21.65;;;5.80;;
69463;SDS011;56665;41.106;16.688;2022-08-19T10:44:42;17.95;;;5.93;;
69463;SDS011;56665;41.106;16.688;2022-08-19T10:47:46;19.03;;;5.97;;
69463;SDS011;56665;41.106;16.688;2022-08-19T10:50:49;20.17;;;5.70;;
69463;SDS011;56665;41.106;16.688;2022-08-19T10:54:11;24.05;;;6.38;;
69463;SDS011;56665;41.106;16.688;2022-08-19T10:57:16;24.35;;;6.72;;
69463;SDS011;56665;41.106;16.688;2022-08-19T11:00:20;23.30;;;6.45;;
69463;SDS011;56665;41.106;16.688;2022-08-19T11:03:26;23.10;;;6.60;;
69463;SDS011;56665;41.106;16.688;2022-08-19T11:06:34;20.65;;;6.30;;
69463;SDS011;56665;41.106;16.688;2022-08-19T11:09:39;18.63;;;6.40;;
69463;SDS011;56665;41.106;16.688;2022-08-19T11:12:44;33.72;;;6.85;;
69463;SDS011;56665;41.106;16.688;2022-08-19T11:19:24;20.93;;;5.90;;
69463;SDS011;56665;41.106;16.688;2022-08-19T11:22:28;22.98;;;6.07;;
69463;SDS011;56665;41.106;16.688;2022-08-19T11:25:33;18.73;;;5.90;;
69463;SDS011;56665;41.106;16.688;2022-08-19T11:28:38;22.08;;;5.63;;
69463;SDS011;56665;41.106;16.688;2022-08-19T11:31:43;26.55;;;6.95;;
69463;SDS011;56665;41.106;16.688;2022-08-19T11:34:48;22.27;;;6.83;;
69463;SDS011;56665;41.106;16.688;2022-08-19T11:37:52;22.88;;;5.90;;
69463;SDS011;56665;41.106;16.688;2022-08-19T11:41:00;23.98;;;6.43;;
69463;SDS011;56665;41.106;16.688;2022-08-19T11:44:06;25.52;;;5.95;;
69463;SDS011;56665;41.106;16.688;2022-08-19T11:47:11;21.98;;;5.80;;
69463;SDS011;56665;41.106;16.688;2022-08-19T11:50:15;24.23;;;6.03;;
69463;SDS011;56665;41.106;16.688;2022-08-19T11:53:19;20.35;;;5.28;;
69463;SDS011;56665;41.106;16.688;2022-08-19T11:56:23;22.15;;;5.60;;
69463;SDS011;56665;41.106;16.688;2022-08-19T11:59:28;27.92;;;5.90;;
69463;SDS011;56665;41.106;16.688;2022-08-19T12:02:33;22.48;;;5.82;;
69463;SDS011;56665;41.106;16.688;2022-08-19T12:05:37;18.60;;;5.63;;
69463;SDS011;56665;41.106;16.688;2022-08-19T12:08:42;21.98;;;5.47;;
69463;SDS011;56665;41.106;16.688;2022-08-19T12:11:47;18.77;;;5.45;;
69463;SDS011;56665;41.106;16.688;2022-08-19T12:14:50;21.92;;;5.60;;
69463;SDS011;56665;41.106;16.688;2022-08-19T12:17:59;20.42;;;5.65;;
69463;SDS011;56665;41.106;16.688;2022-08-19T12:21:03;15.43;;;5.00;;
69463;SDS011;56665;41.106;16.688;2022-08-19T12:24:07;20.98;;;5.70;;
69463;SDS011;56665;41.106;16.688;2022-08-19T12:27:10;18.27;;;5.70;;
69463;SDS011;56665;41.106;16.688;2022-08-19T12:30:14;22.25;;;5.72;;
69463;SDS011;56665;41.106;16.688;2022-08-19T12:33:19;14.48;;;5.40;;
69463;SDS011;56665;41.106;16.688;2022-08-19T12:36:26;17.63;;;5.50;;
69463;SDS011;56665;41.106;16.688;2022-08-19T12:39:33;16.67;;;5.15;;
69463;SDS011;56665;41.106;16.688;2022-08-19T12:42:38;16.50;;;5.18;;
69463;SDS011;56665;41.106;16.688;2022-08-19T12:45:45;16.75;;;5.43;;
69463;SDS011;56665;41.106;16.688;2022-08-19T12:48:49;20.92;;;6.63;;
69463;SDS011;56665;41.106;16.688;2022-08-19T12:51:55;18.63;;;5.53;;
69463;SDS011;56665;41.106;16.688;2022-08-19T12:54:59;20.77;;;6.00;;
69463;SDS011;56665;41.106;16.688;2022-08-19T12:58:03;18.45;;;5.65;;
69463;SDS011;56665;41.106;16.688;2022-08-19T13:01:08;20.02;;;6.10;;
69463;SDS011;56665;41.106;16.688;2022-08-19T13:04:13;18.75;;;6.00;;
69463;SDS011;56665;41.106;16.688;2022-08-19T13:07:17;21.63;;;5.93;;
69463;SDS011;56665;41.106;16.688;2022-08-19T13:10:21;27.58;;;6.63;;
69463;SDS011;56665;41.106;16.688;2022-08-19T13:13:27;26.38;;;6.57;;
69463;SDS011;56665;41.106;16.688;2022-08-19T13:16:31;21.15;;;6.40;;
69463;SDS011;56665;41.106;16.688;2022-08-19T13:19:36;19.75;;;6.13;;
69463;SDS011;56665;41.106;16.688;2022-08-19T13:22:41;22.63;;;6.17;;
69463;SDS011;56665;41.106;16.688;2022-08-19T13:25:54;22.60;;;6.35;;
69463;SDS011;56665;41.106;16.688;2022-08-19T13:28:59;23.30;;;5.90;;
69463;SDS011;56665;41.106;16.688;2022-08-19T13:32:20;24.10;;;6.40;;
69463;SDS011;56665;41.106;16.688;2022-08-19T13:35:47;26.90;;;6.60;;
69463;SDS011;56665;41.106;16.688;2022-08-19T13:38:58;25.50;;;5.80;;
69463;SDS011;56665;41.106;16.688;2022-08-19T13:42:03;15.98;;;6.05;;
69463;SDS011;56665;41.106;16.688;2022-08-19T13:45:07;17.92;;;6.15;;
69463;SDS011;56665;41.106;16.688;2022-08-19T13:48:12;26.65;;;6.55;;
69463;SDS011;56665;41.106;16.688;2022-08-19T13:51:16;18.70;;;5.90;;
69463;SDS011;56665;41.106;16.688;2022-08-19T13:54:20;25.67;;;6.53;;
69463;SDS011;56665;41.106;16.688;2022-08-19T13:57:25;18.13;;;6.45;;
69463;SDS011;56665;41.106;16.688;2022-08-19T14:00:31;19.88;;;6.78;;
69463;SDS011;56665;41.106;16.688;2022-08-19T14:03:37;21.38;;;6.55;;
69463;SDS011;56665;41.106;16.688;2022-08-19T14:06:41;15.63;;;5.68;;
69463;SDS011;56665;41.106;16.688;2022-08-19T14:09:44;17.23;;;6.30;;
69463;SDS011;56665;41.106;16.688;2022-08-19T14:12:49;19.48;;;6.22;;
69463;SDS011;56665;41.106;16.688;2022-08-19T14:15:56;16.73;;;5.97;;
69463;SDS011;56665;41.106;16.688;2022-08-19T14:19:01;16.88;;;6.32;;
69463;SDS011;56665;41.106;16.688;2022-08-19T14:22:05;18.85;;;5.80;;
69463;SDS011;56665;41.106;16.688;2022-08-19T14:25:10;19.13;;;6.50;;
69463;SDS011;56665;41.106;16.688;2022-08-19T14:28:15;18.23;;;5.68;;
69463;SDS011;56665;41.106;16.688;2022-08-19T14:31:19;22.55;;;6.10;;
69463;SDS011;56665;41.106;16.688;2022-08-19T14:34:25;19.77;;;5.47;;
69463;SDS011;56665;41.106;16.688;2022-08-19T14:37:29;13.95;;;6.43;;
69463;SDS011;56665;41.106;16.688;2022-08-19T14:40:33;15.40;;;5.70;;
69463;SDS011;56665;41.106;16.688;2022-08-19T14:43:38;17.65;;;5.50;;
69463;SDS011;56665;41.106;16.688;2022-08-19T14:46:41;16.52;;;6.10;;
69463;SDS011;56665;41.106;16.688;2022-08-19T14:49:45;15.98;;;6.03;;
69463;SDS011;56665;41.106;16.688;2022-08-19T14:52:41;19.25;;;6.68;;
69463;SDS011;56665;41.106;16.688;2022-08-19T14:55:45;24.47;;;6.80;;
69463;SDS011;56665;41.106;16.688;2022-08-19T14:58:49;22.33;;;6.70;;
69463;SDS011;56665;41.106;16.688;2022-08-19T15:01:55;24.55;;;7.18;;
69463;SDS011;56665;41.106;16.688;2022-08-19T15:04:59;20.33;;;6.43;;
69463;SDS011;56665;41.106;16.688;2022-08-19T15:08:03;17.65;;;6.60;;
69463;SDS011;56665;41.106;16.688;2022-08-19T15:11:11;17.60;;;6.77;;
69463;SDS011;56665;41.106;16.688;2022-08-19T15:14:17;21.60;;;6.32;;
69463;SDS011;56665;41.106;16.688;2022-08-19T15:17:23;22.85;;;6.80;;
69463;SDS011;56665;41.106;16.688;2022-08-19T15:20:28;19.77;;;6.45;;
69463;SDS011;56665;41.106;16.688;2022-08-19T15:23:32;21.48;;;6.85;;
69463;SDS011;56665;41.106;16.688;2022-08-19T15:26:36;19.97;;;6.43;;
69463;SDS011;56665;41.106;16.688;2022-08-19T15:29:40;14.50;;;6.28;;
69463;SDS011;56665;41.106;16.688;2022-08-19T15:32:43;16.05;;;6.78;;
69463;SDS011;56665;41.106;16.688;2022-08-19T15:35:48;17.05;;;5.90;;
69463;SDS011;56665;41.106;16.688;2022-08-19T15:38:54;16.13;;;6.20;;
69463;SDS011;56665;41.106;16.688;2022-08-19T15:41:59;22.23;;;7.63;;
69463;SDS011;56665;41.106;16.688;2022-08-19T15:45:03;17.25;;;6.35;;
69463;SDS011;56665;41.106;16.688;2022-08-19T15:48:08;19.48;;;6.72;;
69463;SDS011;56665;41.106;16.688;2022-08-19T15:51:12;16.30;;;6.00;;
69463;SDS011;56665;41.106;16.688;2022-08-19T15:54:18;15.35;;;6.20;;
69463;SDS011;56665;41.106;16.688;2022-08-19T15:57:23;13.67;;;6.37;;
69463;SDS011;56665;41.106;16.688;2022-08-19T16:00:27;18.67;;;6.68;;
69463;SDS011;56665;41.106;16.688;2022-08-19T16:03:50;16.88;;;6.07;;
69463;SDS011;56665;41.106;16.688;2022-08-19T16:07:14;21.15;;;6.03;;
69463;SDS011;56665;41.106;16.688;2022-08-19T16:10:17;20.15;;;6.03;;
69463;SDS011;56665;41.106;16.688;2022-08-19T16:13:22;13.40;;;5.23;;
69463;SDS011;56665;41.106;16.688;2022-08-19T16:16:29;14.25;;;5.22;;
69463;SDS011;56665;41.106;16.688;2022-08-19T16:19:34;15.60;;;7.03;;
69463;SDS011;56665;41.106;16.688;2022-08-19T16:22:38;20.85;;;7.00;;
69463;SDS011;56665;41.106;16.688;2022-08-19T16:25:42;16.67;;;5.68;;
69463;SDS011;56665;41.106;16.688;2022-08-19T16:28:46;14.03;;;5.57;;
69463;SDS011;56665;41.106;16.688;2022-08-19T16:31:51;12.93;;;5.35;;
69463;SDS011;56665;41.106;16.688;2022-08-19T16:34:56;16.10;;;5.63;;
69463;SDS011;56665;41.106;16.688;2022-08-19T16:38:00;16.23;;;5.50;;
69463;SDS011;56665;41.106;16.688;2022-08-19T16:41:04;13.30;;;5.63;;
69463;SDS011;56665;41.106;16.688;2022-08-19T16:44:09;14.07;;;5.50;;
69463;SDS011;56665;41.106;16.688;2022-08-19T16:47:14;14.00;;;5.68;;
69463;SDS011;56665;41.106;16.688;2022-08-19T16:50:20;11.30;;;5.60;;
69463;SDS011;56665;41.106;16.688;2022-08-19T16:53:25;10.13;;;5.60;;
69463;SDS011;56665;41.106;16.688;2022-08-19T16:56:30;18.25;;;6.20;;
69463;SDS011;56665;41.106;16.688;2022-08-19T16:59:35;16.47;;;6.30;;
69463;SDS011;56665;41.106;16.688;2022-08-19T17:02:40;13.27;;;5.18;;
69463;SDS011;56665;41.106;16.688;2022-08-19T17:05:45;11.23;;;5.32;;
69463;SDS011;56665;41.106;16.688;2022-08-19T17:08:50;11.55;;;5.60;;
69463;SDS011;56665;41.106;16.688;2022-08-19T17:11:56;10.93;;;5.70;;
69463;SDS011;56665;41.106;16.688;2022-08-19T17:15:01;12.57;;;5.33;;
69463;SDS011;56665;41.106;16.688;2022-08-19T17:18:07;16.88;;;5.90;;
69463;SDS011;56665;41.106;16.688;2022-08-19T17:21:14;14.35;;;5.90;;
69463;SDS011;56665;41.106;16.688;2022-08-19T17:24:18;10.02;;;5.10;;
69463;SDS011;56665;41.106;16.688;2022-08-19T17:27:21;14.35;;;6.43;;
69463;SDS011;56665;41.106;16.688;2022-08-19T17:30:25;14.73;;;6.90;;
69463;SDS011;56665;41.106;16.688;2022-08-19T17:33:30;22.65;;;6.68;;
69463;SDS011;56665;41.106;16.688;2022-08-19T17:36:34;18.73;;;6.75;;
69463;SDS011;56665;41.106;16.688;2022-08-19T17:39:37;24.38;;;6.65;;
69463;SDS011;56665;41.106;16.688;2022-08-19T17:42:43;17.73;;;6.53;;
69463;SDS011;56665;41.106;16.688;2022-08-19T17:45:47;25.23;;;7.07;;
69463;SDS011;56665;41.106;16.688;2022-08-19T17:48:51;21.63;;;6.78;;
69463;SDS011;56665;41.106;16.688;2022-08-19T17:51:59;15.82;;;6.68;;
69463;SDS011;56665;41.106;16.688;2022-08-19T17:55:04;15.73;;;6.38;;
69463;SDS011;56665;41.106;16.688;2022-08-19T17:58:09;16.05;;;7.20;;
69463;SDS011;56665;41.106;16.688;2022-08-19T18:01:13;21.10;;;6.87;;
69463;SDS011;56665;41.106;16.688;2022-08-19T18:04:17;16.52;;;6.90;;
69463;SDS011;56665;41.106;16.688;2022-08-19T18:07:22;14.27;;;6.88;;
69463;SDS011;56665;41.106;16.688;2022-08-19T18:10:27;21.50;;;6.90;;
69463;SDS011;56665;41.106;16.688;2022-08-19T18:13:34;16.77;;;7.45;;
69463;SDS011;56665;41.106;16.688;2022-08-19T18:16:38;18.53;;;7.67;;
69463;SDS011;56665;41.106;16.688;2022-08-19T18:19:42;16.65;;;6.93;;
69463;SDS011;56665;41.106;16.688;2022-08-19T18:22:47;13.75;;;5.70;;
69463;SDS011;56665;41.106;16.688;2022-08-19T18:25:51;10.68;;;5.40;;
69463;SDS011;56665;41.106;16.688;2022-08-19T18:28:55;14.23;;;5.93;;
69463;SDS011;56665;41.106;16.688;2022-08-19T18:31:59;15.23;;;6.27;;